Details From VTSG - Krabi
To WMKB - Butterworth
Flight Number -
Tags Generated
Created
Modified
Stats Distance 179 nm / 331 km
Max Altitude 0 ft / 0 m
Waypoints 2
Social Downloads 0
Likes 0
Share VATSIM

Download

Looking for another format? Having issues loading an existing format? Contact us
Advertisement - Login to hide

Notes

Generated

Route

VTSG WMKB

ID Type Via Altitude Latitude Longitude Leg Dist Tot Dist Heading (true) Name
O VTSG APT - 0 ft / 0 m 8.10647˚ 98.98012˚ - 0 nm - -
O WMKB APT - 0 ft / 0 m 5.47692˚ 100.39183˚ 178 nm 178 nm 152° / 152° -

Altitude Profile

Advertisement - Login to hide

Weather


0- 5 10 15 20 25 30 35+ Temperature / ° C

Clouds and Precipitation
Forecast for 2017-12-13 06:00 UTC. Updated 30 minutes ago

Ground ~20,000 ft ~40,000 ft Winds

VTSG

Details ICAO VTSG (KBV)
Name Krabi
Region Thailand
Timezone Asia/Bangkok (UTC+7.0)
Stats Elevation 82 ft / 25 m (AMSL)
Location 8.095977° 98.988763°
Runways 1
Magnetic Variation 0.388° W

METAR

VTSG 130100Z 00000KT 5000 BR FEW020 24/24 Q1013

Decode

TAF

TAF VTSG 122300Z 1300/1324 06005KT 9999 FEW020 BECMG 1308/1310 22004KT BECMG 1312/1314 00000KT 9000 BECMG 1320/1322 5000 BR

Decode

Departure Runways

ID Width Length Bearing (true) Bearing (mag) Surface Threshold Offset Overrun Length
14 148 ft / 45 m 9,880 ft / 3,012 m 140.79° 141.18° Asphalt 0 ft / 0 m 197 ft / 60 m
32 148 ft / 45 m 9,880 ft / 3,012 m 320.80° 321.19° Asphalt 0 ft / 0 m 197 ft / 60 m

WMKB

Details ICAO WMKB
Name Butterworth
Region Malaysia (Peninsular Malaysia)
Timezone Asia/Kuala_Lumpur (UTC+8.0)
Stats Elevation 11 ft / 3 m (AMSL)
Location 5.465917° 100.391166°
Runways 1
Magnetic Variation 0.203° W

METAR

WMKB 130100Z VRB01KT 8000 FEW020 SCT140 BKN280 27/25 Q1012 NOSIG

Decode

TAF

Not found

Destination Runways

ID Width Length Bearing (true) Bearing (mag) Surface Threshold Offset Overrun Length
18 150 ft / 46 m 8,043 ft / 2,451 m 183.45° 183.65° Asphalt 0 ft / 0 m 600 ft / 183 m
36 150 ft / 46 m 8,043 ft / 2,451 m 3.45° 3.65° Asphalt 0 ft / 0 m 600 ft / 183 m